createdAt,value
2018-06-11T00:00:41.009Z,0
2018-06-11T00:01:50.726Z,0
2018-06-11T00:03:00.428Z,0
2018-06-11T00:04:10.154Z,0
2018-06-11T00:05:20.115Z,0
2018-06-11T00:06:29.562Z,0
2018-06-11T00:07:39.527Z,0
2018-06-11T00:08:49.243Z,0
2018-06-11T00:09:58.943Z,0
2018-06-11T00:11:08.967Z,0
2018-06-11T00:12:18.958Z,0
2018-06-11T00:13:28.669Z,0
2018-06-11T00:14:38.645Z,0
2018-06-11T00:15:48.364Z,0
2018-06-11T00:16:58.326Z,0
2018-06-11T00:18:08.294Z,0
2018-06-11T00:19:18.258Z,0
2018-06-11T00:20:28.221Z,0
2018-06-11T00:21:37.940Z,0
2018-06-11T00:22:47.918Z,0
2018-06-11T00:23:57.639Z,0
2018-06-11T00:25:07.112Z,0
2018-06-11T00:26:16.821Z,0
2018-06-11T00:27:26.777Z,0
2018-06-11T00:28:36.764Z,0
2018-06-11T00:29:46.728Z,0
2018-06-11T00:30:56.430Z,0
2018-06-11T00:32:06.413Z,0
2018-06-11T00:33:16.387Z,0
2018-06-11T00:34:26.351Z,0
2018-06-11T00:35:36.332Z,0
2018-06-11T00:36:46.304Z,0
2018-06-11T00:37:56.278Z,0
2018-06-11T00:39:06.234Z,0
2018-06-11T00:40:15.944Z,0
2018-06-11T00:41:25.918Z,0
2018-06-11T00:42:35.888Z,0
2018-06-11T00:43:45.607Z,0
2018-06-11T00:44:55.579Z,0
2018-06-11T00:46:05.549Z,0
2018-06-11T00:47:15.263Z,0
2018-06-11T00:48:24.975Z,0
2018-06-11T00:49:34.941Z,0
2018-06-11T00:50:44.909Z,0
2018-06-11T00:51:54.619Z,0
2018-06-11T00:53:04.337Z,0
2018-06-11T00:54:14.049Z,0
2018-06-11T00:55:23.751Z,0
2018-06-11T00:56:33.719Z,0
2018-06-11T00:57:43.681Z,0
2018-06-11T00:58:53.670Z,0
2018-06-11T01:00:03.371Z,0
2018-06-11T01:01:13.077Z,0
2018-06-11T01:02:23.041Z,0
2018-06-11T01:03:33.019Z,0
2018-06-11T01:04:43.051Z,0
2018-06-11T01:05:53.025Z,0
2018-06-11T01:07:02.734Z,0
2018-06-11T01:08:12.708Z,0
2018-06-11T01:09:22.665Z,0
2018-06-11T01:10:32.616Z,0
2018-06-11T01:11:42.583Z,0
2018-06-11T01:12:52.559Z,0
2018-06-11T01:14:02.006Z,0
2018-06-11T01:15:11.970Z,0
2018-06-11T01:16:21.672Z,0
2018-06-11T01:17:31.632Z,0
2018-06-11T01:18:41.337Z,0
2018-06-11T01:19:51.302Z,0
2018-06-11T01:21:00.995Z,0
2018-06-11T01:22:10.201Z,0
2018-06-11T01:23:19.901Z,0
2018-06-11T01:24:29.613Z,0
2018-06-11T01:25:39.570Z,0
2018-06-11T01:26:49.290Z,0
2018-06-11T01:27:59.265Z,0
2018-06-11T01:29:09.227Z,0
2018-06-11T01:30:19.203Z,0
2018-06-11T01:31:29.165Z,0
2018-06-11T01:32:38.871Z,0
2018-06-11T01:33:48.836Z,0
2018-06-11T01:34:58.800Z,0
2018-06-11T01:36:08.783Z,0
2018-06-11T01:37:18.489Z,0
2018-06-11T01:38:28.233Z,0
2018-06-11T01:39:38.196Z,0
2018-06-11T01:40:48.148Z,0
2018-06-11T01:41:58.112Z,0
2018-06-11T01:43:08.075Z,0
2018-06-11T01:44:18.033Z,0
2018-06-11T01:45:27.734Z,0
2018-06-11T01:46:37.706Z,0
2018-06-11T01:47:47.410Z,0
2018-06-11T01:48:57.113Z,0
2018-06-11T01:50:07.073Z,0
2018-06-11T01:51:17.066Z,0
2018-06-11T01:52:27.044Z,0
2018-06-11T01:53:37.006Z,0
2018-06-11T01:54:46.718Z,0
2018-06-11T01:55:56.430Z,0
2018-06-11T01:57:06.148Z,0
2018-06-11T01:58:16.116Z,4
2018-06-11T01:59:25.828Z,4
2018-06-11T02:00:35.552Z,4
2018-06-11T02:01:45.268Z,4
2018-06-11T02:02:54.991Z,4
2018-06-11T02:04:04.701Z,4
2018-06-11T02:05:14.395Z,4
2018-06-11T02:06:23.848Z,8
2018-06-11T02:07:33.558Z,8
2018-06-11T02:08:43.521Z,8
2018-06-11T02:09:53.498Z,8
2018-06-11T02:11:03.474Z,12
2018-06-11T02:12:13.491Z,12
2018-06-11T02:13:23.470Z,12
2018-06-11T02:14:33.451Z,16
2018-06-11T02:15:43.161Z,20
2018-06-11T02:16:52.866Z,24
2018-06-11T02:18:02.843Z,24
2018-06-11T02:19:12.855Z,32
2018-06-11T02:20:22.829Z,32
2018-06-11T02:21:32.806Z,40
2018-06-11T02:22:42.505Z,44
2018-06-11T02:23:52.219Z,52
2018-06-11T02:25:02.192Z,60
2018-06-11T02:26:12.164Z,64
2018-06-11T02:27:22.121Z,80
2018-06-11T02:28:32.085Z,88
2018-06-11T02:29:42.049Z,100
2018-06-11T02:30:51.779Z,112
2018-06-11T02:32:01.736Z,124
2018-06-11T02:33:11.734Z,144
2018-06-11T02:34:21.707Z,156
2018-06-11T02:35:31.680Z,180
2018-06-11T02:36:41.651Z,200
2018-06-11T02:37:51.612Z,220
2018-06-11T02:39:01.577Z,240
2018-06-11T02:40:11.307Z,264
2018-06-11T02:41:21.024Z,288
2018-06-11T02:42:30.993Z,312
2018-06-11T02:43:40.702Z,344
2018-06-11T02:44:50.425Z,376
2018-06-11T02:46:00.393Z,416
2018-06-11T02:47:10.370Z,456
2018-06-11T02:48:20.354Z,492
2018-06-11T02:49:30.072Z,532
2018-06-11T02:50:40.048Z,572
2018-06-11T02:51:50.042Z,616
2018-06-11T02:52:59.502Z,664
2018-06-11T02:54:09.470Z,712
2018-06-11T02:55:19.198Z,752
2018-06-11T02:56:29.181Z,792
2018-06-11T02:57:38.896Z,820
2018-06-11T02:58:48.868Z,860
2018-06-11T02:59:58.843Z,904
2018-06-11T03:01:08.810Z,952
2018-06-11T03:02:18.787Z,1000
2018-06-11T03:03:28.763Z,1048
2018-06-11T03:04:38.723Z,1100
2018-06-11T03:05:48.694Z,1152
2018-06-11T03:06:58.682Z,1196
2018-06-11T03:08:08.399Z,1244
2018-06-11T03:09:18.118Z,1292
2018-06-11T03:10:28.091Z,1336
2018-06-11T03:11:38.062Z,1372
2018-06-11T03:12:47.519Z,1412
2018-06-11T03:13:57.504Z,1444
2018-06-11T03:15:07.237Z,1460
2018-06-11T03:16:17.204Z,1472
2018-06-11T03:17:27.174Z,1484
2018-06-11T03:18:36.893Z,1468
2018-06-11T03:19:46.601Z,1424
2018-06-11T03:20:56.307Z,1368
2018-06-11T03:22:06.034Z,1304
2018-06-11T03:23:16.008Z,1236
2018-06-11T03:24:25.981Z,1200
2018-06-11T03:25:35.946Z,1156
2018-06-11T03:26:45.657Z,1136
2018-06-11T03:27:55.623Z,1168
2018-06-11T03:29:05.639Z,1196
2018-06-11T03:30:15.604Z,1228
2018-06-11T03:31:25.563Z,1272
2018-06-11T03:32:35.017Z,1288
2018-06-11T03:33:44.973Z,1220
2018-06-11T03:34:54.697Z,1172
2018-06-11T03:36:04.674Z,1216
2018-06-11T03:37:14.655Z,1324
2018-06-11T03:38:24.626Z,1440
2018-06-11T03:39:34.604Z,1536
2018-06-11T03:40:44.527Z,1636
2018-06-11T03:41:54.243Z,1656
2018-06-11T03:43:03.966Z,1628
2018-06-11T03:44:13.936Z,1652
2018-06-11T03:45:23.903Z,1792
2018-06-11T03:46:33.871Z,1948
2018-06-11T03:47:43.848Z,2036
2018-06-11T03:48:53.822Z,2072
2018-06-11T03:50:03.801Z,2104
2018-06-11T03:51:13.516Z,2120
2018-06-11T03:52:23.494Z,2088
2018-06-11T03:53:33.466Z,2044
2018-06-11T03:54:43.177Z,2108
2018-06-11T03:55:53.143Z,2204
2018-06-11T03:57:03.109Z,2240
2018-06-11T03:58:13.073Z,2212
2018-06-11T03:59:23.035Z,2144
2018-06-11T04:00:33.001Z,2116
2018-06-11T04:01:42.981Z,2200
2018-06-11T04:02:52.694Z,2200
2018-06-11T04:04:02.426Z,2240
2018-06-11T04:05:12.420Z,2228
2018-06-11T04:06:22.130Z,2236
2018-06-11T04:07:31.840Z,2244
2018-06-11T04:08:41.801Z,2272
2018-06-11T04:09:51.762Z,2396
2018-06-11T04:11:02.172Z,2608
2018-06-11T04:12:12.291Z,2740
2018-06-11T04:13:22.010Z,2764
2018-06-11T04:14:31.722Z,2768
2018-06-11T04:15:41.434Z,2784
2018-06-11T04:16:51.409Z,2812
2018-06-11T04:18:01.384Z,2884
2018-06-11T04:19:11.362Z,3104
2018-06-11T04:20:21.343Z,3268
2018-06-11T04:21:31.055Z,3220
2018-06-11T04:22:40.768Z,3240
2018-06-11T04:23:50.740Z,3356
2018-06-11T04:25:00.445Z,3540
2018-06-11T04:26:09.894Z,3772
2018-06-11T04:27:19.604Z,4048
2018-06-11T04:28:29.321Z,4176
2018-06-11T04:29:39.018Z,4268
2018-06-11T04:30:48.819Z,4268
2018-06-11T04:31:58.788Z,4188
2018-06-11T04:33:08.517Z,4248
2018-06-11T04:34:18.500Z,4340
2018-06-11T04:35:28.217Z,4284
2018-06-11T04:36:38.189Z,4464
2018-06-11T04:37:47.900Z,4748
2018-06-11T04:38:57.621Z,4952
2018-06-11T04:40:07.683Z,5188
2018-06-11T04:41:17.656Z,5576
2018-06-11T04:42:27.627Z,5960
2018-06-11T04:43:37.341Z,6148
2018-06-11T04:44:47.064Z,6152
2018-06-11T04:45:56.772Z,6220
2018-06-11T04:47:06.741Z,6612
2018-06-11T04:48:16.715Z,7156
2018-06-11T04:49:26.428Z,7552
2018-06-11T04:50:36.393Z,7728
2018-06-11T04:51:46.361Z,7624
2018-06-11T04:52:56.069Z,7528
2018-06-11T04:54:06.042Z,7768
2018-06-11T04:55:16.143Z,8024
2018-06-11T04:56:26.133Z,7720
2018-06-11T04:57:36.110Z,8392
2018-06-11T04:58:46.070Z,8740
2018-06-11T04:59:55.786Z,8860
2018-06-11T05:01:05.499Z,8996
2018-06-11T05:02:15.472Z,8648
2018-06-11T05:03:25.443Z,8844
2018-06-11T05:04:35.141Z,8744
2018-06-11T05:05:45.126Z,8644
2018-06-11T05:06:54.833Z,8780
2018-06-11T05:08:04.588Z,8712
2018-06-11T05:09:14.318Z,8464
2018-06-11T05:10:24.304Z,8172
2018-06-11T05:11:33.495Z,8032
2018-06-11T05:12:43.202Z,8232
2018-06-11T05:13:52.918Z,8928
2018-06-11T05:15:02.886Z,9744
2018-06-11T05:16:12.853Z,10484
2018-06-11T05:17:22.567Z,11028
2018-06-11T05:18:32.585Z,11484
2018-06-11T05:19:42.548Z,11908
2018-06-11T05:20:52.277Z,12116
2018-06-11T05:22:02.257Z,12204
2018-06-11T05:23:12.248Z,12012
2018-06-11T05:24:22.203Z,12160
2018-06-11T05:25:32.234Z,12644
2018-06-11T05:26:42.199Z,13032
2018-06-11T05:27:51.899Z,13296
2018-06-11T05:29:01.607Z,13404
2018-06-11T05:30:11.325Z,13300
2018-06-11T05:31:21.324Z,12448
2018-06-11T05:32:31.287Z,11452
2018-06-11T05:33:41.259Z,11080
2018-06-11T05:34:51.482Z,11344
2018-06-11T05:36:01.316Z,11224
2018-06-11T05:37:11.281Z,8764
2018-06-11T05:38:21.009Z,7232
2018-06-11T05:39:30.717Z,7172
2018-06-11T05:40:40.934Z,6980
2018-06-11T05:41:50.907Z,7168
2018-06-11T05:43:00.627Z,7532
2018-06-11T05:44:10.600Z,7484
2018-06-11T05:45:20.572Z,7432
2018-06-11T05:46:30.537Z,7060
2018-06-11T05:47:40.287Z,6556
2018-06-11T05:48:50.018Z,6056
2018-06-11T05:50:00.028Z,6080
2018-06-11T05:51:09.775Z,6056
2018-06-11T05:52:19.786Z,6464
2018-06-11T05:53:29.929Z,7376
2018-06-11T05:54:39.710Z,7436
2018-06-11T05:55:49.702Z,6836
2018-06-11T05:56:59.465Z,6928
2018-06-11T05:58:09.478Z,7664
2018-06-11T05:59:19.443Z,9808
2018-06-11T06:00:29.422Z,10748
2018-06-11T06:01:39.426Z,10748
2018-06-11T06:02:49.141Z,11072
2018-06-11T06:03:59.119Z,11220
2018-06-11T06:05:09.113Z,10832
2018-06-11T06:06:19.097Z,11140
2018-06-11T06:07:29.091Z,13036
2018-06-11T06:08:38.876Z,14864
2018-06-11T06:09:48.858Z,15392
2018-06-11T06:10:58.846Z,15096
2018-06-11T06:12:08.845Z,16052
2018-06-11T06:13:18.830Z,17100
2018-06-11T06:14:28.542Z,17664
2018-06-11T06:15:38.510Z,17072
2018-06-11T06:16:48.235Z,16400
2018-06-11T06:17:57.972Z,15864
2018-06-11T06:19:07.965Z,15836
2018-06-11T06:20:17.692Z,15692
2018-06-11T06:21:27.416Z,15076
2018-06-11T06:22:37.140Z,14568
2018-06-11T06:23:46.873Z,14980
2018-06-11T06:24:56.334Z,15648
2018-06-11T06:26:06.305Z,15848
2018-06-11T06:27:16.279Z,15636
2018-06-11T06:28:26.280Z,15616
2018-06-11T06:29:35.999Z,15920
2018-06-11T06:30:45.981Z,16088
2018-06-11T06:31:55.693Z,16688
2018-06-11T06:33:05.680Z,17728
2018-06-11T06:34:16.004Z,19200
2018-06-11T06:35:26.029Z,20224
2018-06-11T06:36:35.733Z,20096
2018-06-11T06:37:45.721Z,18560
2018-06-11T06:38:55.699Z,16760
2018-06-11T06:40:05.667Z,15732
2018-06-11T06:41:15.646Z,14460
2018-06-11T06:42:25.100Z,12624
2018-06-11T06:43:34.835Z,11204
2018-06-11T06:44:45.076Z,9852
2018-06-11T06:45:54.809Z,8020
2018-06-11T06:47:04.531Z,6520
2018-06-11T06:48:14.232Z,5968
2018-06-11T06:49:24.220Z,6044
2018-06-11T06:50:34.199Z,5992
2018-06-11T06:51:43.914Z,5568
2018-06-11T06:52:53.902Z,5444
2018-06-11T06:54:03.878Z,5460
2018-06-11T06:55:13.588Z,5544
2018-06-11T06:56:23.363Z,5788
2018-06-11T06:57:33.355Z,6512
2018-06-11T06:58:43.339Z,7872
2018-06-11T06:59:53.323Z,10092
2018-06-11T07:01:03.293Z,13484
2018-06-11T07:02:13.258Z,16720
2018-06-11T07:03:23.233Z,18336
2018-06-11T07:04:33.216Z,18464
2018-06-11T07:05:43.194Z,18720
2018-06-11T07:06:53.170Z,18912
2018-06-11T07:08:03.207Z,18240
2018-06-11T07:09:12.923Z,17792
2018-06-11T07:10:22.641Z,17760
2018-06-11T07:11:32.631Z,17728
2018-06-11T07:12:42.092Z,17856
2018-06-11T07:13:52.183Z,18432
2018-06-11T07:15:02.196Z,18784
2018-06-11T07:16:11.677Z,17280
2018-06-11T07:17:21.664Z,15352
2018-06-11T07:18:31.624Z,14988
2018-06-11T07:19:41.618Z,15696
2018-06-11T07:20:51.624Z,16340
2018-06-11T07:22:01.342Z,16804
2018-06-11T07:23:11.321Z,18176
2018-06-11T07:24:21.303Z,19136
2018-06-11T07:25:31.016Z,20224
2018-06-11T07:26:40.992Z,21216
2018-06-11T07:27:50.742Z,22304
2018-06-11T07:29:00.465Z,23264
2018-06-11T07:30:10.455Z,23872
2018-06-11T07:31:20.005Z,23680
2018-06-11T07:32:30.202Z,23456
2018-06-11T07:33:39.768Z,24672
2018-06-11T07:34:49.492Z,25568
2018-06-11T07:35:59.536Z,27392
2018-06-11T07:37:09.521Z,30048
2018-06-11T07:38:19.301Z,32896
2018-06-11T07:39:29.296Z,33856
2018-06-11T07:40:39.272Z,33152
2018-06-11T07:41:48.996Z,32128
2018-06-11T07:42:58.725Z,30144
2018-06-11T07:44:08.440Z,26400
2018-06-11T07:45:18.167Z,21984
2018-06-11T07:46:28.165Z,18496
2018-06-11T07:47:37.943Z,15824
2018-06-11T07:48:48.002Z,15640
2018-06-11T07:49:57.980Z,18080
2018-06-11T07:51:08.006Z,21056
2018-06-11T07:52:17.989Z,22944
2018-06-11T07:53:27.718Z,23744
2018-06-11T07:54:37.709Z,24736
2018-06-11T07:55:47.701Z,25856
2018-06-11T07:56:57.436Z,27808
2018-06-11T07:58:07.415Z,30592
2018-06-11T07:59:17.137Z,33888
2018-06-11T08:00:27.111Z,35840
2018-06-11T08:01:37.100Z,33408
2018-06-11T08:02:47.104Z,29312
2018-06-11T08:03:57.098Z,28192
2018-06-11T08:05:06.818Z,27904
2018-06-11T08:06:16.809Z,28992
2018-06-11T08:07:26.923Z,27136
2018-06-11T08:08:36.984Z,26624
2018-06-11T08:09:46.701Z,27424
2018-06-11T08:10:56.676Z,29696
2018-06-11T08:12:06.654Z,32000
2018-06-11T08:13:16.381Z,35424
2018-06-11T08:14:26.392Z,36640
2018-06-11T08:15:36.379Z,34432
2018-06-11T08:16:46.370Z,29472
2018-06-11T08:17:56.334Z,25952
2018-06-11T08:19:06.333Z,24416
2018-06-11T08:20:16.312Z,24992
2018-06-11T08:21:26.323Z,26080
2018-06-11T08:22:36.303Z,28800
2018-06-11T08:23:46.286Z,33216
2018-06-11T08:24:56.258Z,36608
2018-06-11T08:26:06.242Z,36320
2018-06-11T08:27:16.241Z,35520
2018-06-11T08:28:25.961Z,36256
2018-06-11T08:29:35.973Z,34464
2018-06-11T08:30:45.977Z,35328
2018-06-11T08:31:55.698Z,35744
2018-06-11T08:33:05.421Z,36896
2018-06-11T08:34:15.407Z,37376
2018-06-11T08:35:25.401Z,34848
2018-06-11T08:36:35.393Z,57504
2018-06-11T08:37:45.145Z,59456
2018-06-11T08:38:55.130Z,46880
2018-06-11T08:40:05.116Z,34176
2018-06-11T08:41:15.091Z,34784
2018-06-11T08:42:24.824Z,30272
2018-06-11T08:43:34.848Z,25280
2018-06-11T08:44:44.304Z,20736
2018-06-11T08:45:54.276Z,18688
2018-06-11T08:47:04.256Z,19424
2018-06-11T08:48:13.744Z,21088
2018-06-11T08:49:23.764Z,22240
2018-06-11T08:50:33.494Z,24160
2018-06-11T08:51:43.463Z,28096
2018-06-11T08:52:53.439Z,59872
2018-06-11T08:54:03.425Z,45536
2018-06-11T08:55:13.433Z,58944
2018-06-11T08:56:23.437Z,64480
2018-06-11T08:57:33.153Z,65120
2018-06-11T08:58:43.205Z,67104
2018-06-11T08:59:53.249Z,40032
2018-06-11T09:01:03.378Z,29056
2018-06-11T09:02:13.097Z,67136
2018-06-11T09:03:22.549Z,69600
2018-06-11T09:04:32.533Z,43616
2018-06-11T09:05:42.289Z,35328
2018-06-11T09:06:52.278Z,64032
2018-06-11T09:08:02.259Z,51616
2018-06-11T09:09:12.264Z,38112
2018-06-11T09:10:22.248Z,49760
2018-06-11T09:11:31.998Z,70848
2018-06-11T09:12:42.172Z,72832
2018-06-11T09:13:52.165Z,76064
2018-06-11T09:15:02.134Z,72416
2018-06-11T09:16:12.110Z,34688
2018-06-11T09:17:22.107Z,78976
2018-06-11T09:18:32.808Z,69024
2018-06-11T09:19:42.321Z,83200
2018-06-11T09:20:52.288Z,68192
2018-06-11T09:22:02.011Z,46336
2018-06-11T09:23:11.755Z,31136
2018-06-11T09:24:21.776Z,68512
2018-06-11T09:25:31.797Z,82656
2018-06-11T09:26:41.768Z,82240
2018-06-11T09:27:51.757Z,80736
2018-06-11T09:29:01.277Z,39968
2018-06-11T09:30:11.297Z,79488
2018-06-11T09:31:21.291Z,77376
2018-06-11T09:32:31.260Z,82368
2018-06-11T09:33:41.254Z,80448
2018-06-11T09:34:51.242Z,91072
2018-06-11T09:36:01.221Z,91584
2018-06-11T09:37:10.943Z,51424
2018-06-11T09:38:20.845Z,89664
2018-06-11T09:39:30.550Z,91904
2018-06-11T09:40:40.033Z,92096
2018-06-11T09:41:50.005Z,85216
2018-06-11T09:42:59.735Z,84288
2018-06-11T09:44:09.316Z,82336
2018-06-11T09:45:19.158Z,85696
2018-06-11T09:46:29.146Z,92160
2018-06-11T09:47:39.177Z,93984
2018-06-11T09:48:49.154Z,94752
2018-06-11T09:49:59.138Z,44160
2018-06-11T09:51:09.146Z,41888
2018-06-11T09:52:18.655Z,94304
2018-06-11T09:53:28.401Z,93664
2018-06-11T09:54:38.448Z,97696
2018-06-11T09:55:48.611Z,79520
2018-06-11T09:56:58.403Z,95968
2018-06-11T09:58:08.147Z,40416
2018-06-11T09:59:18.139Z,35808
2018-06-11T10:00:27.850Z,35360
2018-06-11T10:01:37.845Z,92928
2018-06-11T10:02:47.320Z,95936
2018-06-11T10:03:57.317Z,98080
2018-06-11T10:05:07.326Z,94688
2018-06-11T10:06:17.315Z,63936
2018-06-11T10:07:27.312Z,52448
2018-06-11T10:08:37.309Z,58880
2018-06-11T10:09:47.302Z,41024
2018-06-11T10:10:57.032Z,99584
2018-06-11T10:12:06.776Z,100800
2018-06-11T10:13:16.803Z,98368
2018-06-11T10:14:26.790Z,103616
2018-06-11T10:15:36.772Z,107040
2018-06-11T10:16:46.775Z,101376
2018-06-11T10:17:56.743Z,107360
2018-06-11T10:19:06.606Z,39296
2018-06-11T10:20:16.385Z,32608
2018-06-11T10:21:26.118Z,33152
2018-06-11T10:22:35.843Z,35328
2018-06-11T10:23:45.568Z,43360
2018-06-11T10:24:55.851Z,51136
2018-06-11T10:26:05.863Z,118176
2018-06-11T10:27:15.576Z,112640
2018-06-11T10:28:25.559Z,57664
2018-06-11T10:29:35.016Z,113760
2018-06-11T10:30:45.012Z,112032
2018-06-11T10:31:55.027Z,122624
2018-06-11T10:33:04.999Z,42784
2018-06-11T10:34:14.972Z,114912
2018-06-11T10:35:24.958Z,119776
2018-06-11T10:36:34.687Z,103872
2018-06-11T10:37:44.489Z,119552
2018-06-11T10:38:54.205Z,99840
2018-06-11T10:40:04.203Z,108224
2018-06-11T10:41:14.213Z,112000
2018-06-11T10:42:23.696Z,118400
2018-06-11T10:43:33.695Z,111328
2018-06-11T10:44:43.675Z,111840
2018-06-11T10:45:53.661Z,115456
2018-06-11T10:47:03.655Z,103712
2018-06-11T10:48:13.640Z,40064
2018-06-11T10:49:23.638Z,113344
2018-06-11T10:50:33.641Z,119264
2018-06-11T10:51:43.856Z,114432
2018-06-11T10:52:53.847Z,125760
2018-06-11T10:54:03.856Z,129600
2018-06-11T10:55:13.857Z,133024
2018-06-11T10:56:23.594Z,131200
2018-06-11T10:57:33.616Z,64960
2018-06-11T10:58:43.656Z,125984
2018-06-11T10:59:53.135Z,121568
2018-06-11T11:01:03.195Z,121376
2018-06-11T11:02:13.189Z,124256
2018-06-11T11:03:22.673Z,122688
2018-06-11T11:04:32.460Z,126048
2018-06-11T11:05:42.536Z,122208
2018-06-11T11:06:52.534Z,79136
2018-06-11T11:08:02.545Z,120256
2018-06-11T11:09:12.281Z,121120
2018-06-11T11:10:22.317Z,119488
2018-06-11T11:11:32.308Z,108416
2018-06-11T11:12:42.660Z,126400
2018-06-11T11:13:52.680Z,130336
2018-06-11T11:15:02.416Z,117088
2018-06-11T11:16:12.457Z,117184
2018-06-11T11:17:22.196Z,120672
2018-06-11T11:18:31.936Z,119040
2018-06-11T11:19:41.922Z,119040
2018-06-11T11:20:51.500Z,118336
2018-06-11T11:22:01.553Z,119040
2018-06-11T11:23:11.555Z,123040
2018-06-11T11:24:21.312Z,114816
2018-06-11T11:25:31.304Z,118848
2018-06-11T11:26:41.308Z,120096
2018-06-11T11:27:51.051Z,117792
2018-06-11T11:29:01.046Z,117984
2018-06-11T11:30:11.048Z,113920
2018-06-11T11:31:20.522Z,120544
2018-06-11T11:32:30.527Z,119840
2018-06-11T11:33:40.503Z,115008
2018-06-11T11:34:50.474Z,113536
2018-06-11T11:36:00.185Z,118912
2018-06-11T11:37:09.934Z,128960
2018-06-11T11:38:19.937Z,117856
2018-06-11T11:39:29.929Z,119968
2018-06-11T11:40:39.930Z,122272
2018-06-11T11:41:49.692Z,113632
2018-06-11T11:42:59.702Z,124832
2018-06-11T11:44:09.716Z,127648
2018-06-11T11:45:19.722Z,126400
2018-06-11T11:46:29.485Z,129792
2018-06-11T11:47:39.482Z,127488
2018-06-11T11:48:49.486Z,124384
2018-06-11T11:49:59.488Z,125632
2018-06-11T11:51:09.398Z,127616
2018-06-11T11:52:19.517Z,125472
2018-06-11T11:53:29.519Z,129184
2018-06-11T11:54:39.501Z,133888
2018-06-11T11:55:49.494Z,133728
2018-06-11T11:56:59.496Z,125632
2018-06-11T11:58:09.497Z,120128
2018-06-11T11:59:19.481Z,125024
2018-06-11T12:00:29.223Z,127360
2018-06-11T12:01:39.341Z,124736
2018-06-11T12:02:49.373Z,122912
2018-06-11T12:03:59.357Z,124352
2018-06-11T12:05:09.342Z,129344
2018-06-11T12:06:19.076Z,131104
2018-06-11T12:07:28.808Z,136960
2018-06-11T12:08:38.827Z,136000
2018-06-11T12:09:48.797Z,129504
2018-06-11T12:10:58.802Z,130016
2018-06-11T12:12:08.527Z,135072
2018-06-11T12:13:17.999Z,129952
2018-06-11T12:14:27.726Z,128736
2018-06-11T12:15:37.708Z,133056
2018-06-11T12:16:47.709Z,123584
2018-06-11T12:17:57.455Z,121248
2018-06-11T12:19:07.682Z,134624
2018-06-11T12:20:17.917Z,139456
2018-06-11T12:21:27.897Z,124480
2018-06-11T12:22:37.879Z,123680
2018-06-11T12:23:47.857Z,132928
2018-06-11T12:24:57.845Z,130912
2018-06-11T12:26:07.563Z,130688
2018-06-11T12:27:17.552Z,132448
2018-06-11T12:28:27.544Z,133120
2018-06-11T12:29:37.264Z,130560
2018-06-11T12:30:47.257Z,124576
2018-06-11T12:31:57.253Z,125344
2018-06-11T12:33:07.260Z,132288
2018-06-11T12:34:17.246Z,132832
2018-06-11T12:35:26.726Z,128224
2018-06-11T12:36:36.436Z,131456
2018-06-11T12:37:46.417Z,135072
2018-06-11T12:38:56.399Z,129312
2018-06-11T12:40:06.123Z,126656
2018-06-11T12:41:16.124Z,128512
2018-06-11T12:42:25.858Z,129536
2018-06-11T12:43:35.857Z,127776
2018-06-11T12:44:45.869Z,129408
2018-06-11T12:45:55.858Z,129760
2018-06-11T12:47:05.816Z,133344
2018-06-11T12:48:15.555Z,129056
2018-06-11T12:49:24.997Z,125664
2018-06-11T12:50:34.945Z,130784
2018-06-11T12:51:44.936Z,132864
2018-06-11T12:52:55.189Z,134368
2018-06-11T12:54:05.173Z,132992
2018-06-11T12:55:14.896Z,128896
2018-06-11T12:56:25.100Z,132256
2018-06-11T12:57:34.951Z,133696
2018-06-11T12:58:44.938Z,130848
2018-06-11T12:59:54.928Z,128384
2018-06-11T13:01:04.949Z,134688
2018-06-11T13:02:15.186Z,137152
2018-06-11T13:03:24.978Z,124160
2018-06-11T13:04:34.969Z,131840
2018-06-11T13:05:44.964Z,131616
2018-06-11T13:06:54.953Z,125376
2018-06-11T13:08:04.951Z,120960
2018-06-11T13:09:14.943Z,133920
2018-06-11T13:10:24.947Z,136096
2018-06-11T13:11:34.680Z,129728
2018-06-11T13:12:44.404Z,123872
2018-06-11T13:13:54.162Z,124128
2018-06-11T13:15:03.960Z,130976
2018-06-11T13:16:13.986Z,125696
2018-06-11T13:17:23.996Z,128512
2018-06-11T13:18:33.474Z,128512
2018-06-11T13:19:43.212Z,125056
2018-06-11T13:20:52.936Z,128352
2018-06-11T13:22:02.710Z,123232
2018-06-11T13:23:12.479Z,119296
2018-06-11T13:24:21.684Z,120352
2018-06-11T13:25:31.677Z,122784
2018-06-11T13:26:41.689Z,128480
2018-06-11T13:27:51.406Z,131136
2018-06-11T13:29:01.404Z,129504
2018-06-11T13:30:11.422Z,132064
2018-06-11T13:31:21.406Z,130688
2018-06-11T13:32:31.394Z,127936
2018-06-11T13:33:41.378Z,130176
2018-06-11T13:34:51.363Z,126144
2018-06-11T13:36:01.106Z,125504
2018-06-11T13:37:11.420Z,129280
2018-06-11T13:38:21.444Z,130016
2018-06-11T13:39:31.188Z,128672
2018-06-11T13:40:41.184Z,128768
2018-06-11T13:41:51.160Z,129344
2018-06-11T13:43:01.141Z,136704
2018-06-11T13:44:11.113Z,134976
2018-06-11T13:45:20.867Z,127456
2018-06-11T13:46:30.857Z,129536
2018-06-11T13:47:40.850Z,130976
2018-06-11T13:48:50.819Z,127008
2018-06-11T13:50:00.796Z,124864
2018-06-11T13:51:10.834Z,126560
2018-06-11T13:52:20.817Z,127040
2018-06-11T13:53:30.808Z,118912
2018-06-11T13:54:40.840Z,118144
2018-06-11T13:55:50.841Z,124032
2018-06-11T13:57:00.928Z,122880
2018-06-11T13:58:11.321Z,118656
2018-06-11T13:59:21.330Z,121440
2018-06-11T14:00:31.306Z,132992
2018-06-11T14:01:41.298Z,129280
2018-06-11T14:02:51.308Z,122816
2018-06-11T14:04:01.045Z,126624
2018-06-11T14:05:11.045Z,127456
2018-06-11T14:06:21.040Z,126016
2018-06-11T14:07:31.026Z,122112
2018-06-11T14:08:41.067Z,119904
2018-06-11T14:09:51.045Z,128000
2018-06-11T14:11:01.090Z,120992
2018-06-11T14:12:11.089Z,114336
2018-06-11T14:13:21.080Z,124992
2018-06-11T14:14:30.824Z,122688
2018-06-11T14:15:40.841Z,120096
2018-06-11T14:16:50.859Z,119936
2018-06-11T14:18:00.881Z,123680
2018-06-11T14:19:10.885Z,126400
2018-06-11T14:20:20.911Z,123104
2018-06-11T14:21:30.922Z,123104
2018-06-11T14:22:40.937Z,128192
2018-06-11T14:23:50.668Z,118880
2018-06-11T14:25:00.419Z,115104
2018-06-11T14:26:10.452Z,122688
2018-06-11T14:27:20.462Z,124000
2018-06-11T14:28:30.201Z,118432
2018-06-11T14:29:40.262Z,115360
2018-06-11T14:30:50.253Z,121408
2018-06-11T14:31:59.978Z,117600
2018-06-11T14:33:09.993Z,115552
2018-06-11T14:34:19.731Z,122752
2018-06-11T14:35:29.733Z,122368
2018-06-11T14:36:39.733Z,119680
2018-06-11T14:37:49.726Z,119296
2018-06-11T14:38:59.739Z,119584
2018-06-11T14:40:09.468Z,119648
2018-06-11T14:41:19.313Z,116864
2018-06-11T14:42:29.306Z,118080
2018-06-11T14:43:39.043Z,116448
2018-06-11T14:44:48.808Z,120224
2018-06-11T14:45:58.537Z,121184
2018-06-11T14:47:08.542Z,115264
2018-06-11T14:48:18.541Z,120544
2018-06-11T14:49:28.268Z,123520
2018-06-11T14:50:38.256Z,114624
2018-06-11T14:51:48.239Z,114112
2018-06-11T14:52:58.256Z,117280
2018-06-11T14:54:07.989Z,113856
2018-06-11T14:55:17.985Z,109632
2018-06-11T14:56:27.736Z,107840
2018-06-11T14:57:37.731Z,113152
2018-06-11T14:58:47.463Z,109408
2018-06-11T14:59:57.681Z,101504
2018-06-11T15:01:07.689Z,109792
2018-06-11T15:02:17.687Z,105568
2018-06-11T15:03:27.679Z,103584
2018-06-11T15:04:37.665Z,103072
2018-06-11T15:05:47.431Z,103616
2018-06-11T15:06:57.414Z,106080
2018-06-11T15:08:07.181Z,106048
2018-06-11T15:09:17.207Z,106528
2018-06-11T15:10:26.678Z,106976
2018-06-11T15:11:36.405Z,113344
2018-06-11T15:12:46.396Z,106432
2018-06-11T15:13:56.122Z,95264
2018-06-11T15:15:05.858Z,109824
2018-06-11T15:16:15.571Z,102880
2018-06-11T15:17:25.302Z,100640